Ackermanville, Pennsylvania
Current Conditions -  °F | °C
As of 2:51 AM on Sunday 28 Dec 2014 (Local Time) from KABE Reporting Station
Overcast Overcast  
Wind Chill:   Ceiling: 8500
Heat Index:   Visibility: 10mi
Dew Point:   Wind: 3mph
Humidity: 79%   Direction: 100°E
Pressure: 29.95"   Gusts: NA
Location:  40.84°N, 75.22°W
Report Text: KABE 280751Z 10003KT 10SM OVC085 04/01 A2995 RMK AO2 SLP142 T00390006
Loading
Personal Weather Stations






























Interactive Weather Map New forecast layout! Learn more

10-Day Weather Forecast

Advertisements
Track Severe Weather on mobile